sensor_id;sensor_type;location;lat;lon;timestamp;pressure;altitude;pressure_sealevel;temperature;humidity
12624;BME280;6377;42.836;23.998;2023-08-08T00:00:47;95547.09;;;18.98;100.00
12624;BME280;6377;42.836;23.998;2023-08-08T00:03:14;95541.84;;;19.15;100.00
12624;BME280;6377;42.836;23.998;2023-08-08T00:05:41;95548.13;;;19.43;100.00
12624;BME280;6377;42.836;23.998;2023-08-08T00:08:08;95558.00;;;19.66;96.62
12624;BME280;6377;42.836;23.998;2023-08-08T00:10:36;95559.06;;;19.93;93.25
12624;BME280;6377;42.836;23.998;2023-08-08T00:13:03;95550.66;;;20.01;92.31
12624;BME280;6377;42.836;23.998;2023-08-08T00:15:32;95546.69;;;20.21;91.00
12624;BME280;6377;42.836;23.998;2023-08-08T00:17:59;95506.81;;;20.12;89.11
12624;BME280;6377;42.836;23.998;2023-08-08T00:20:26;95524.22;;;20.38;87.00
12624;BME280;6377;42.836;23.998;2023-08-08T00:22:53;95481.91;;;20.17;86.93
12624;BME280;6377;42.836;23.998;2023-08-08T00:25:21;95503.47;;;20.05;88.25
12624;BME280;6377;42.836;23.998;2023-08-08T00:27:50;95530.41;;;19.82;92.32
12624;BME280;6377;42.836;23.998;2023-08-08T00:30:17;95534.91;;;19.65;94.32
12624;BME280;6377;42.836;23.998;2023-08-08T00:32:46;95504.09;;;19.16;96.96
12624;BME280;6377;42.836;23.998;2023-08-08T00:35:13;95535.44;;;18.92;100.00
12624;BME280;6377;42.836;23.998;2023-08-08T00:37:41;95529.25;;;18.80;100.00
12624;BME280;6377;42.836;23.998;2023-08-08T00:40:08;95520.50;;;18.73;100.00
12624;BME280;6377;42.836;23.998;2023-08-08T00:42:35;95501.88;;;19.01;100.00
12624;BME280;6377;42.836;23.998;2023-08-08T00:45:03;95476.66;;;19.14;99.53
12624;BME280;6377;42.836;23.998;2023-08-08T00:47:31;95481.31;;;19.30;98.68
12624;BME280;6377;42.836;23.998;2023-08-08T00:50:01;95509.31;;;19.46;96.98
12624;BME280;6377;42.836;23.998;2023-08-08T00:52:29;95511.84;;;19.29;98.65
12624;BME280;6377;42.836;23.998;2023-08-08T00:54:56;95511.28;;;19.39;97.78
12624;BME280;6377;42.836;23.998;2023-08-08T00:57:25;95509.75;;;19.54;96.76
12624;BME280;6377;42.836;23.998;2023-08-08T00:59:52;95490.66;;;19.28;96.42
12624;BME280;6377;42.836;23.998;2023-08-08T01:02:19;95439.97;;;19.03;96.33
12624;BME280;6377;42.836;23.998;2023-08-08T01:04:47;95453.34;;;19.26;95.37
12624;BME280;6377;42.836;23.998;2023-08-08T01:07:22;95503.81;;;19.81;93.26
12624;BME280;6377;42.836;23.998;2023-08-08T01:09:55;95504.91;;;19.96;91.13
12624;BME280;6377;42.836;23.998;2023-08-08T01:12:27;95499.41;;;19.00;98.43
12624;BME280;6377;42.836;23.998;2023-08-08T01:14:54;95527.16;;;18.82;100.00
12624;BME280;6377;42.836;23.998;2023-08-08T01:17:22;95523.34;;;18.90;100.00
12624;BME280;6377;42.836;23.998;2023-08-08T01:19:52;95508.19;;;18.72;100.00
12624;BME280;6377;42.836;23.998;2023-08-08T01:22:24;95526.22;;;19.00;100.00
12624;BME280;6377;42.836;23.998;2023-08-08T01:24:54;95536.47;;;18.80;100.00
12624;BME280;6377;42.836;23.998;2023-08-08T01:27:22;95543.78;;;18.50;100.00
12624;BME280;6377;42.836;23.998;2023-08-08T01:29:49;95534.16;;;18.30;100.00
12624;BME280;6377;42.836;23.998;2023-08-08T01:32:17;95518.63;;;18.09;100.00
12624;BME280;6377;42.836;23.998;2023-08-08T01:34:44;95526.31;;;18.17;100.00
12624;BME280;6377;42.836;23.998;2023-08-08T01:37:15;95529.09;;;18.40;100.00
12624;BME280;6377;42.836;23.998;2023-08-08T01:39:45;95510.28;;;18.29;100.00
12624;BME280;6377;42.836;23.998;2023-08-08T01:42:15;95548.94;;;18.86;100.00
12624;BME280;6377;42.836;23.998;2023-08-08T01:44:45;95540.69;;;18.99;100.00
12624;BME280;6377;42.836;23.998;2023-08-08T01:47:12;95557.09;;;19.37;99.39
12624;BME280;6377;42.836;23.998;2023-08-08T01:49:39;95561.72;;;19.65;96.79
12624;BME280;6377;42.836;23.998;2023-08-08T01:52:07;95570.97;;;19.58;97.59
12624;BME280;6377;42.836;23.998;2023-08-08T01:54:34;95578.09;;;19.64;97.00
12624;BME280;6377;42.836;23.998;2023-08-08T01:57:01;95578.16;;;19.80;94.65
12624;BME280;6377;42.836;23.998;2023-08-08T01:59:30;95580.09;;;19.85;93.99
12624;BME280;6377;42.836;23.998;2023-08-08T02:01:57;95585.00;;;19.88;93.27
12624;BME280;6377;42.836;23.998;2023-08-08T02:04:24;95594.44;;;19.90;92.79
12624;BME280;6377;42.836;23.998;2023-08-08T02:06:51;95581.34;;;19.94;91.35
12624;BME280;6377;42.836;23.998;2023-08-08T02:09:19;95565.84;;;19.96;91.07
12624;BME280;6377;42.836;23.998;2023-08-08T02:11:46;95563.38;;;19.94;91.37
12624;BME280;6377;42.836;23.998;2023-08-08T02:14:13;95589.50;;;20.10;90.51
12624;BME280;6377;42.836;23.998;2023-08-08T02:16:41;95596.72;;;20.10;89.69
12624;BME280;6377;42.836;23.998;2023-08-08T02:19:09;95597.16;;;20.19;89.78
12624;BME280;6377;42.836;23.998;2023-08-08T02:21:36;95595.75;;;20.28;88.35
12624;BME280;6377;42.836;23.998;2023-08-08T02:24:04;95601.34;;;20.26;88.04
12624;BME280;6377;42.836;23.998;2023-08-08T02:26:31;95571.34;;;20.18;87.67
12624;BME280;6377;42.836;23.998;2023-08-08T02:28:58;95577.78;;;20.17;87.50
12624;BME280;6377;42.836;23.998;2023-08-08T02:31:26;95599.56;;;20.32;88.28
12624;BME280;6377;42.836;23.998;2023-08-08T02:33:54;95594.44;;;20.30;88.94
12624;BME280;6377;42.836;23.998;2023-08-08T02:36:22;95587.72;;;20.16;87.37
12624;BME280;6377;42.836;23.998;2023-08-08T02:38:49;95604.38;;;20.30;87.59
12624;BME280;6377;42.836;23.998;2023-08-08T02:41:19;95593.53;;;20.25;87.20
12624;BME280;6377;42.836;23.998;2023-08-08T02:43:46;95557.06;;;20.00;86.87
12624;BME280;6377;42.836;23.998;2023-08-08T02:46:13;95616.94;;;20.41;86.65
12624;BME280;6377;42.836;23.998;2023-08-08T02:48:41;95601.31;;;20.38;87.00
12624;BME280;6377;42.836;23.998;2023-08-08T02:51:09;95612.38;;;20.41;87.08
12624;BME280;6377;42.836;23.998;2023-08-08T02:53:37;95614.59;;;20.44;86.89
12624;BME280;6377;42.836;23.998;2023-08-08T02:56:04;95618.09;;;20.45;86.74
12624;BME280;6377;42.836;23.998;2023-08-08T02:58:31;95619.75;;;20.46;85.78
12624;BME280;6377;42.836;23.998;2023-08-08T03:00:59;95635.69;;;20.52;85.00
12624;BME280;6377;42.836;23.998;2023-08-08T03:03:26;95641.06;;;20.52;85.52
12624;BME280;6377;42.836;23.998;2023-08-08T03:05:53;95657.97;;;20.36;86.42
12624;BME280;6377;42.836;23.998;2023-08-08T03:08:21;95662.16;;;20.32;87.06
12624;BME280;6377;42.836;23.998;2023-08-08T03:10:49;95628.50;;;20.01;86.92
12624;BME280;6377;42.836;23.998;2023-08-08T03:13:16;95644.91;;;20.28;86.74
12624;BME280;6377;42.836;23.998;2023-08-08T03:15:45;95629.03;;;20.27;86.07
12624;BME280;6377;42.836;23.998;2023-08-08T03:18:12;95627.13;;;20.39;85.84
12624;BME280;6377;42.836;23.998;2023-08-08T03:20:40;95629.88;;;20.44;85.78
12624;BME280;6377;42.836;23.998;2023-08-08T03:23:07;95640.41;;;20.45;85.37
12624;BME280;6377;42.836;23.998;2023-08-08T03:25:36;95656.19;;;20.42;85.40
12624;BME280;6377;42.836;23.998;2023-08-08T03:28:03;95657.97;;;20.36;86.48
12624;BME280;6377;42.836;23.998;2023-08-08T03:30:31;95652.72;;;20.30;86.97
12624;BME280;6377;42.836;23.998;2023-08-08T03:32:58;95657.75;;;20.26;86.99
12624;BME280;6377;42.836;23.998;2023-08-08T03:35:25;95648.75;;;20.21;86.62
12624;BME280;6377;42.836;23.998;2023-08-08T03:37:53;95684.03;;;20.12;87.61
12624;BME280;6377;42.836;23.998;2023-08-08T03:40:20;95689.66;;;19.99;88.79
12624;BME280;6377;42.836;23.998;2023-08-08T03:42:48;95695.38;;;20.03;88.62
12624;BME280;6377;42.836;23.998;2023-08-08T03:45:16;95692.00;;;20.07;88.12
12624;BME280;6377;42.836;23.998;2023-08-08T03:47:43;95687.28;;;20.14;87.56
12624;BME280;6377;42.836;23.998;2023-08-08T03:50:11;95676.44;;;20.21;86.65
12624;BME280;6377;42.836;23.998;2023-08-08T03:52:39;95690.72;;;20.10;87.46
12624;BME280;6377;42.836;23.998;2023-08-08T03:55:06;95707.19;;;20.02;88.54
12624;BME280;6377;42.836;23.998;2023-08-08T03:57:33;95708.69;;;19.98;88.96
12624;BME280;6377;42.836;23.998;2023-08-08T04:00:03;95720.84;;;20.00;88.55
12624;BME280;6377;42.836;23.998;2023-08-08T04:02:33;95722.00;;;20.04;87.99
12624;BME280;6377;42.836;23.998;2023-08-08T04:05:00;95721.31;;;19.97;89.39
12624;BME280;6377;42.836;23.998;2023-08-08T04:07:28;95714.19;;;19.91;89.73
12624;BME280;6377;42.836;23.998;2023-08-08T04:09:55;95714.75;;;19.93;89.11
12624;BME280;6377;42.836;23.998;2023-08-08T04:12:22;95668.69;;;19.38;91.70
12624;BME280;6377;42.836;23.998;2023-08-08T04:14:50;95699.84;;;19.63;91.80
12624;BME280;6377;42.836;23.998;2023-08-08T04:17:18;95712.44;;;19.74;90.74
12624;BME280;6377;42.836;23.998;2023-08-08T04:19:45;95733.56;;;19.82;92.48
12624;BME280;6377;42.836;23.998;2023-08-08T04:22:13;95728.34;;;19.75;91.80
12624;BME280;6377;42.836;23.998;2023-08-08T04:24:41;95714.78;;;19.82;92.18
12624;BME280;6377;42.836;23.998;2023-08-08T04:27:08;95717.22;;;19.95;90.69
12624;BME280;6377;42.836;23.998;2023-08-08T04:29:36;95650.84;;;19.55;89.95
12624;BME280;6377;42.836;23.998;2023-08-08T04:32:03;95726.31;;;20.05;89.08
12624;BME280;6377;42.836;23.998;2023-08-08T04:34:32;95707.53;;;19.94;90.98
12624;BME280;6377;42.836;23.998;2023-08-08T04:36:59;95712.41;;;20.08;89.66
12624;BME280;6377;42.836;23.998;2023-08-08T04:39:26;95715.91;;;20.09;89.14
12624;BME280;6377;42.836;23.998;2023-08-08T04:41:54;95725.16;;;20.13;88.34
12624;BME280;6377;42.836;23.998;2023-08-08T04:44:21;95736.22;;;20.05;89.22
12624;BME280;6377;42.836;23.998;2023-08-08T04:46:50;95746.28;;;19.98;89.73
12624;BME280;6377;42.836;23.998;2023-08-08T04:49:17;95751.41;;;19.76;90.85
12624;BME280;6377;42.836;23.998;2023-08-08T04:51:46;95766.66;;;19.41;92.72
12624;BME280;6377;42.836;23.998;2023-08-08T04:54:13;95740.66;;;19.00;96.79
12624;BME280;6377;42.836;23.998;2023-08-08T04:56:40;95763.31;;;19.16;97.80
12624;BME280;6377;42.836;23.998;2023-08-08T04:59:07;95761.03;;;19.31;97.44
12624;BME280;6377;42.836;23.998;2023-08-08T05:01:34;95763.06;;;19.47;95.48
12624;BME280;6377;42.836;23.998;2023-08-08T05:04:01;95771.00;;;19.53;94.88
12624;BME280;6377;42.836;23.998;2023-08-08T05:06:28;95771.84;;;19.66;93.11
12624;BME280;6377;42.836;23.998;2023-08-08T05:08:57;95763.91;;;19.82;91.82
12624;BME280;6377;42.836;23.998;2023-08-08T05:11:24;95741.75;;;19.75;90.75
12624;BME280;6377;42.836;23.998;2023-08-08T05:13:51;95759.94;;;19.96;89.59
12624;BME280;6377;42.836;23.998;2023-08-08T05:16:18;95756.53;;;20.12;89.12
12624;BME280;6377;42.836;23.998;2023-08-08T05:18:45;95756.44;;;20.19;89.29
12624;BME280;6377;42.836;23.998;2023-08-08T05:21:13;95762.03;;;20.29;87.97
12624;BME280;6377;42.836;23.998;2023-08-08T05:23:40;95769.97;;;20.36;88.75
12624;BME280;6377;42.836;23.998;2023-08-08T05:26:08;95778.00;;;20.24;89.34
12624;BME280;6377;42.836;23.998;2023-08-08T05:28:35;95780.25;;;20.16;89.17
12624;BME280;6377;42.836;23.998;2023-08-08T05:31:02;95774.41;;;20.19;88.61
12624;BME280;6377;42.836;23.998;2023-08-08T05:33:30;95741.38;;;20.06;88.10
12624;BME280;6377;42.836;23.998;2023-08-08T05:35:57;95772.88;;;20.11;87.57
12624;BME280;6377;42.836;23.998;2023-08-08T05:38:24;95760.16;;;20.06;87.80
12624;BME280;6377;42.836;23.998;2023-08-08T05:40:51;95782.13;;;20.27;87.49
12624;BME280;6377;42.836;23.998;2023-08-08T05:43:20;95778.97;;;20.30;86.92
12624;BME280;6377;42.836;23.998;2023-08-08T05:45:47;95759.94;;;20.31;86.25
12624;BME280;6377;42.836;23.998;2023-08-08T05:48:14;95766.56;;;20.40;85.76
12624;BME280;6377;42.836;23.998;2023-08-08T05:50:42;95777.44;;;20.45;85.55
12624;BME280;6377;42.836;23.998;2023-08-08T05:53:09;95780.25;;;20.39;85.27
12624;BME280;6377;42.836;23.998;2023-08-08T05:55:36;95771.16;;;20.28;85.65
12624;BME280;6377;42.836;23.998;2023-08-08T05:58:04;95781.19;;;20.33;85.72
12624;BME280;6377;42.836;23.998;2023-08-08T06:00:32;95794.50;;;20.28;87.10
12624;BME280;6377;42.836;23.998;2023-08-08T06:03:00;95797.50;;;19.96;85.24
12624;BME280;6377;42.836;23.998;2023-08-08T06:05:27;95795.91;;;19.84;86.90
12624;BME280;6377;42.836;23.998;2023-08-08T06:07:55;95810.47;;;19.76;83.90
12624;BME280;6377;42.836;23.998;2023-08-08T06:10:22;95803.03;;;19.90;84.62
12624;BME280;6377;42.836;23.998;2023-08-08T06:12:51;95787.84;;;19.95;81.61
12624;BME280;6377;42.836;23.998;2023-08-08T06:15:18;95793.31;;;20.00;82.57
12624;BME280;6377;42.836;23.998;2023-08-08T06:17:47;95785.16;;;19.95;81.32
12624;BME280;6377;42.836;23.998;2023-08-08T06:20:14;95792.75;;;19.75;77.00
12624;BME280;6377;42.836;23.998;2023-08-08T06:22:42;95802.94;;;19.43;79.12
12624;BME280;6377;42.836;23.998;2023-08-08T06:25:09;95793.22;;;19.31;78.39
12624;BME280;6377;42.836;23.998;2023-08-08T06:27:36;95792.94;;;19.50;82.17
12624;BME280;6377;42.836;23.998;2023-08-08T06:30:05;95791.88;;;19.40;79.37
12624;BME280;6377;42.836;23.998;2023-08-08T06:32:33;95756.78;;;19.12;77.39
12624;BME280;6377;42.836;23.998;2023-08-08T06:35:02;95802.38;;;19.53;78.83
12624;BME280;6377;42.836;23.998;2023-08-08T06:37:30;95805.78;;;19.60;78.58
12624;BME280;6377;42.836;23.998;2023-08-08T06:39:57;95804.94;;;19.18;76.40
12624;BME280;6377;42.836;23.998;2023-08-08T06:42:24;95799.91;;;19.40;79.41
12624;BME280;6377;42.836;23.998;2023-08-08T06:44:52;95811.69;;;19.39;75.69
12624;BME280;6377;42.836;23.998;2023-08-08T06:47:19;95733.34;;;19.07;77.49
12624;BME280;6377;42.836;23.998;2023-08-08T06:49:46;95802.72;;;19.45;77.42
12624;BME280;6377;42.836;23.998;2023-08-08T06:52:15;95796.91;;;19.60;77.66
12624;BME280;6377;42.836;23.998;2023-08-08T06:54:42;95802.41;;;19.65;74.72
12624;BME280;6377;42.836;23.998;2023-08-08T06:57:09;95809.06;;;19.74;75.19
12624;BME280;6377;42.836;23.998;2023-08-08T06:59:36;95793.88;;;19.68;74.50
12624;BME280;6377;42.836;23.998;2023-08-08T07:02:03;95806.16;;;19.75;70.64
12624;BME280;6377;42.836;23.998;2023-08-08T07:04:31;95812.47;;;19.92;70.04
12624;BME280;6377;42.836;23.998;2023-08-08T07:06:58;95787.03;;;19.95;69.38
12624;BME280;6377;42.836;23.998;2023-08-08T07:09:27;95800.81;;;19.98;69.36
12624;BME280;6377;42.836;23.998;2023-08-08T07:11:55;95802.09;;;19.96;69.99
12624;BME280;6377;42.836;23.998;2023-08-08T07:14:22;95778.38;;;19.70;66.24
12624;BME280;6377;42.836;23.998;2023-08-08T07:16:49;95799.97;;;19.86;64.12
12624;BME280;6377;42.836;23.998;2023-08-08T07:19:16;95804.88;;;19.78;67.78
12624;BME280;6377;42.836;23.998;2023-08-08T07:21:44;95757.13;;;19.56;65.33
12624;BME280;6377;42.836;23.998;2023-08-08T07:24:12;95792.03;;;19.80;63.81
12624;BME280;6377;42.836;23.998;2023-08-08T07:26:41;95794.72;;;19.91;62.74
12624;BME280;6377;42.836;23.998;2023-08-08T07:29:08;95790.41;;;19.90;64.68
12624;BME280;6377;42.836;23.998;2023-08-08T07:31:35;95798.69;;;20.12;64.62
12624;BME280;6377;42.836;23.998;2023-08-08T07:34:03;95797.19;;;20.28;64.44
12624;BME280;6377;42.836;23.998;2023-08-08T07:36:30;95800.34;;;20.01;61.19
12624;BME280;6377;42.836;23.998;2023-08-08T07:38:57;95802.31;;;20.18;62.27
12624;BME280;6377;42.836;23.998;2023-08-08T07:41:25;95797.03;;;20.23;62.82
12624;BME280;6377;42.836;23.998;2023-08-08T07:43:54;95803.16;;;20.30;63.64
12624;BME280;6377;42.836;23.998;2023-08-08T07:46:22;95796.34;;;20.39;62.81
12624;BME280;6377;42.836;23.998;2023-08-08T07:48:49;95805.00;;;20.29;63.16
12624;BME280;6377;42.836;23.998;2023-08-08T07:51:17;95774.78;;;20.10;62.69
12624;BME280;6377;42.836;23.998;2023-08-08T07:53:44;95786.56;;;20.33;62.05
12624;BME280;6377;42.836;23.998;2023-08-08T07:56:11;95806.84;;;20.52;61.24
12624;BME280;6377;42.836;23.998;2023-08-08T07:58:38;95808.84;;;20.45;61.42
12624;BME280;6377;42.836;23.998;2023-08-08T08:01:07;95807.22;;;20.44;62.25
12624;BME280;6377;42.836;23.998;2023-08-08T08:03:35;95818.75;;;20.56;60.12
12624;BME280;6377;42.836;23.998;2023-08-08T08:06:04;95816.63;;;20.58;60.56
12624;BME280;6377;42.836;23.998;2023-08-08T08:08:31;95799.59;;;20.52;59.32
12624;BME280;6377;42.836;23.998;2023-08-08T08:10:58;95814.19;;;20.68;59.30
12624;BME280;6377;42.836;23.998;2023-08-08T08:13:25;95813.66;;;20.83;57.42
12624;BME280;6377;42.836;23.998;2023-08-08T08:15:53;95809.03;;;21.06;56.85
12624;BME280;6377;42.836;23.998;2023-08-08T08:18:21;95813.41;;;21.24;56.67
12624;BME280;6377;42.836;23.998;2023-08-08T08:20:48;95804.56;;;21.40;54.12
12624;BME280;6377;42.836;23.998;2023-08-08T08:23:16;95810.13;;;21.50;55.10
12624;BME280;6377;42.836;23.998;2023-08-08T08:25:43;95812.88;;;21.39;54.53
12624;BME280;6377;42.836;23.998;2023-08-08T08:28:10;95810.38;;;21.65;52.99
12624;BME280;6377;42.836;23.998;2023-08-08T08:30:37;95786.38;;;21.64;53.29
12624;BME280;6377;42.836;23.998;2023-08-08T08:33:05;95804.44;;;21.80;52.82
12624;BME280;6377;42.836;23.998;2023-08-08T08:35:35;95786.78;;;21.72;53.78
12624;BME280;6377;42.836;23.998;2023-08-08T08:38:02;95781.69;;;21.54;54.18
12624;BME280;6377;42.836;23.998;2023-08-08T08:40:30;95807.84;;;21.42;54.45
12624;BME280;6377;42.836;23.998;2023-08-08T08:42:59;95801.81;;;21.68;55.93
12624;BME280;6377;42.836;23.998;2023-08-08T08:45:28;95812.44;;;21.75;54.64
12624;BME280;6377;42.836;23.998;2023-08-08T08:47:56;95808.94;;;21.91;53.25
12624;BME280;6377;42.836;23.998;2023-08-08T08:50:26;95812.13;;;22.05;53.58
12624;BME280;6377;42.836;23.998;2023-08-08T08:52:56;95811.13;;;21.77;53.89
12624;BME280;6377;42.836;23.998;2023-08-08T08:55:25;95813.00;;;21.15;54.76
12624;BME280;6377;42.836;23.998;2023-08-08T08:57:53;95808.75;;;21.19;55.52
12624;BME280;6377;42.836;23.998;2023-08-08T09:00:20;95816.63;;;21.38;56.00
12624;BME280;6377;42.836;23.998;2023-08-08T09:02:48;95813.97;;;21.71;54.03
12624;BME280;6377;42.836;23.998;2023-08-08T09:05:16;95809.78;;;21.92;53.88
12624;BME280;6377;42.836;23.998;2023-08-08T09:07:47;95810.22;;;21.55;51.18
12624;BME280;6377;42.836;23.998;2023-08-08T09:10:17;95805.44;;;21.91;50.02
12624;BME280;6377;42.836;23.998;2023-08-08T09:12:45;95809.66;;;22.20;50.57
12624;BME280;6377;42.836;23.998;2023-08-08T09:15:12;95811.63;;;22.24;50.28
12624;BME280;6377;42.836;23.998;2023-08-08T09:17:40;95799.63;;;21.99;50.10
12624;BME280;6377;42.836;23.998;2023-08-08T09:20:09;95807.72;;;22.15;50.33
12624;BME280;6377;42.836;23.998;2023-08-08T09:22:37;95803.25;;;22.04;51.00
12624;BME280;6377;42.836;23.998;2023-08-08T09:25:05;95796.72;;;22.39;51.38
12624;BME280;6377;42.836;23.998;2023-08-08T09:27:35;95794.78;;;22.56;49.45
12624;BME280;6377;42.836;23.998;2023-08-08T09:30:06;95786.06;;;22.65;50.92
12624;BME280;6377;42.836;23.998;2023-08-08T09:32:34;95801.69;;;22.47;50.54
12624;BME280;6377;42.836;23.998;2023-08-08T09:35:02;95790.88;;;22.85;49.70
12624;BME280;6377;42.836;23.998;2023-08-08T09:37:29;95793.41;;;23.18;50.16
12624;BME280;6377;42.836;23.998;2023-08-08T09:39:57;95771.03;;;22.96;49.11
12624;BME280;6377;42.836;23.998;2023-08-08T09:42:26;95777.47;;;22.52;49.62
12624;BME280;6377;42.836;23.998;2023-08-08T09:44:56;95807.19;;;22.73;48.62
12624;BME280;6377;42.836;23.998;2023-08-08T09:47:24;95804.28;;;23.02;49.66
12624;BME280;6377;42.836;23.998;2023-08-08T09:49:57;95782.03;;;23.16;47.36
12624;BME280;6377;42.836;23.998;2023-08-08T09:52:27;95717.25;;;22.84;48.77
12624;BME280;6377;42.836;23.998;2023-08-08T09:54:55;95793.66;;;23.70;47.23
12624;BME280;6377;42.836;23.998;2023-08-08T09:57:23;95795.50;;;23.96;47.54
12624;BME280;6377;42.836;23.998;2023-08-08T10:00:05;95796.63;;;24.01;46.47
12624;BME280;6377;42.836;23.998;2023-08-08T10:02:37;95761.81;;;23.72;45.30
12624;BME280;6377;42.836;23.998;2023-08-08T10:05:12;95762.72;;;23.51;46.85
12624;BME280;6377;42.836;23.998;2023-08-08T10:07:40;95781.88;;;23.50;46.82
12624;BME280;6377;42.836;23.998;2023-08-08T10:10:09;95801.59;;;23.50;47.27
12624;BME280;6377;42.836;23.998;2023-08-08T10:12:37;95738.75;;;23.01;46.74
12624;BME280;6377;42.836;23.998;2023-08-08T10:15:08;95758.56;;;23.70;47.43
12624;BME280;6377;42.836;23.998;2023-08-08T10:17:36;95742.38;;;23.17;46.37
12624;BME280;6377;42.836;23.998;2023-08-08T10:20:05;95789.97;;;23.50;46.12
12624;BME280;6377;42.836;23.998;2023-08-08T10:22:37;95781.47;;;23.63;47.33
12624;BME280;6377;42.836;23.998;2023-08-08T10:25:08;95742.97;;;23.19;47.16
12624;BME280;6377;42.836;23.998;2023-08-08T10:27:37;95748.41;;;23.51;46.86
12624;BME280;6377;42.836;23.998;2023-08-08T10:30:08;95776.66;;;24.07;45.96
12624;BME280;6377;42.836;23.998;2023-08-08T10:32:39;95797.13;;;23.97;45.25
12624;BME280;6377;42.836;23.998;2023-08-08T10:35:07;95791.53;;;24.46;46.47
12624;BME280;6377;42.836;23.998;2023-08-08T10:37:35;95794.72;;;24.85;43.64
12624;BME280;6377;42.836;23.998;2023-08-08T10:40:03;95789.25;;;24.80;42.83
12624;BME280;6377;42.836;23.998;2023-08-08T10:42:40;95760.47;;;25.26;42.46
12624;BME280;6377;42.836;23.998;2023-08-08T10:45:12;95777.34;;;25.93;42.10
12624;BME280;6377;42.836;23.998;2023-08-08T10:47:40;95769.75;;;25.95;41.78
12624;BME280;6377;42.836;23.998;2023-08-08T10:50:09;95767.56;;;26.02;42.37
12624;BME280;6377;42.836;23.998;2023-08-08T10:52:53;95766.16;;;26.50;41.36
12624;BME280;6377;42.836;23.998;2023-08-08T10:55:21;95753.41;;;26.56;40.64
12624;BME280;6377;42.836;23.998;2023-08-08T10:57:54;95738.25;;;27.09;39.44
12624;BME280;6377;42.836;23.998;2023-08-08T11:00:27;95772.84;;;26.88;40.71
12624;BME280;6377;42.836;23.998;2023-08-08T11:02:55;95723.16;;;27.42;38.04
12624;BME280;6377;42.836;23.998;2023-08-08T11:05:23;95762.56;;;28.12;38.89
12624;BME280;6377;42.836;23.998;2023-08-08T11:07:50;95747.97;;;27.64;37.34
12624;BME280;6377;42.836;23.998;2023-08-08T11:10:17;95761.59;;;28.26;37.98
12624;BME280;6377;42.836;23.998;2023-08-08T11:12:54;95720.16;;;28.34;37.50
12624;BME280;6377;42.836;23.998;2023-08-08T11:15:21;95761.75;;;28.64;35.88
12624;BME280;6377;42.836;23.998;2023-08-08T11:17:50;95767.81;;;28.56;36.28
12624;BME280;6377;42.836;23.998;2023-08-08T11:20:18;95749.31;;;28.29;34.82
12624;BME280;6377;42.836;23.998;2023-08-08T11:22:50;95765.56;;;28.86;34.71
12624;BME280;6377;42.836;23.998;2023-08-08T11:25:18;95715.97;;;28.89;33.36
12624;BME280;6377;42.836;23.998;2023-08-08T11:27:50;95735.63;;;28.86;33.14
12624;BME280;6377;42.836;23.998;2023-08-08T11:30:22;95735.09;;;28.61;35.71
12624;BME280;6377;42.836;23.998;2023-08-08T11:32:50;95757.72;;;28.04;36.35
12624;BME280;6377;42.836;23.998;2023-08-08T11:35:20;95755.97;;;28.18;35.16
12624;BME280;6377;42.836;23.998;2023-08-08T11:37:49;95750.53;;;28.18;35.06
12624;BME280;6377;42.836;23.998;2023-08-08T11:40:17;95721.09;;;28.72;33.05
12624;BME280;6377;42.836;23.998;2023-08-08T11:42:46;95747.44;;;29.57;34.75
12624;BME280;6377;42.836;23.998;2023-08-08T11:45:16;95723.38;;;29.82;33.79
12624;BME280;6377;42.836;23.998;2023-08-08T11:47:43;95725.81;;;29.28;34.70
12624;BME280;6377;42.836;23.998;2023-08-08T11:50:12;95745.91;;;29.51;34.21
12624;BME280;6377;42.836;23.998;2023-08-08T11:52:40;95738.22;;;27.58;35.07
12624;BME280;6377;42.836;23.998;2023-08-08T11:55:08;95738.75;;;27.21;36.74
12624;BME280;6377;42.836;23.998;2023-08-08T11:57:37;95733.19;;;27.75;36.04
12624;BME280;6377;42.836;23.998;2023-08-08T12:00:06;95730.84;;;28.26;34.12
12624;BME280;6377;42.836;23.998;2023-08-08T12:02:34;95709.59;;;27.70;34.10
12624;BME280;6377;42.836;23.998;2023-08-08T12:05:05;95698.94;;;27.40;36.06
12624;BME280;6377;42.836;23.998;2023-08-08T12:07:34;95727.03;;;27.25;36.12
12624;BME280;6377;42.836;23.998;2023-08-08T12:10:04;95718.69;;;27.56;34.54
12624;BME280;6377;42.836;23.998;2023-08-08T12:12:32;95719.03;;;27.39;35.50
12624;BME280;6377;42.836;23.998;2023-08-08T12:15:03;95705.59;;;27.24;35.69
12624;BME280;6377;42.836;23.998;2023-08-08T12:17:31;95722.09;;;27.33;36.23
12624;BME280;6377;42.836;23.998;2023-08-08T12:19:59;95712.03;;;27.72;36.19
12624;BME280;6377;42.836;23.998;2023-08-08T12:22:26;95716.56;;;26.35;36.80
12624;BME280;6377;42.836;23.998;2023-08-08T12:24:55;95715.81;;;25.94;37.95
12624;BME280;6377;42.836;23.998;2023-08-08T12:27:22;95714.47;;;26.91;37.21
12624;BME280;6377;42.836;23.998;2023-08-08T12:29:49;95726.56;;;27.86;34.48
12624;BME280;6377;42.836;23.998;2023-08-08T12:32:18;95698.25;;;27.92;33.66
12624;BME280;6377;42.836;23.998;2023-08-08T12:34:46;95716.97;;;28.51;33.47
12624;BME280;6377;42.836;23.998;2023-08-08T12:37:13;95716.31;;;28.59;33.72
12624;BME280;6377;42.836;23.998;2023-08-08T12:39:41;95714.88;;;28.19;33.66
12624;BME280;6377;42.836;23.998;2023-08-08T12:42:09;95717.50;;;27.67;35.88
12624;BME280;6377;42.836;23.998;2023-08-08T12:44:36;95699.69;;;27.12;36.67
12624;BME280;6377;42.836;23.998;2023-08-08T12:47:04;95700.50;;;27.56;36.90
12624;BME280;6377;42.836;23.998;2023-08-08T12:49:31;95725.72;;;27.62;36.45
12624;BME280;6377;42.836;23.998;2023-08-08T12:51:58;95598.88;;;26.85;36.78
12624;BME280;6377;42.836;23.998;2023-08-08T12:54:25;95694.28;;;27.07;37.28
12624;BME280;6377;42.836;23.998;2023-08-08T12:56:53;95721.97;;;27.53;36.87
12624;BME280;6377;42.836;23.998;2023-08-08T12:59:21;95728.09;;;26.65;37.72
12624;BME280;6377;42.836;23.998;2023-08-08T13:01:48;95721.78;;;26.06;39.13
12624;BME280;6377;42.836;23.998;2023-08-08T13:04:15;95728.78;;;25.36;39.47